createdAt,value
2019-04-05T00:00:12.375Z,951.68
2019-04-05T00:01:12.367Z,951.78
2019-04-05T00:02:12.372Z,951.79
2019-04-05T00:03:12.331Z,951.80
2019-04-05T00:04:12.333Z,951.84
2019-04-05T00:05:12.327Z,951.94
2019-04-05T00:06:12.317Z,951.96
2019-04-05T00:07:12.306Z,951.89
2019-04-05T00:08:12.308Z,951.86
2019-04-05T00:09:12.263Z,951.96
2019-04-05T00:10:12.266Z,952.05
2019-04-05T00:11:12.243Z,952.03
2019-04-05T00:12:12.245Z,952.04
2019-04-05T00:13:12.240Z,952.05
2019-04-05T00:14:12.229Z,952.02
2019-04-05T00:15:15.722Z,952.01
2019-04-05T00:16:12.185Z,951.95
2019-04-05T00:17:12.175Z,952.00
2019-04-05T00:18:12.184Z,951.95
2019-04-05T00:19:12.172Z,951.99
2019-04-05T00:20:12.141Z,951.98
2019-04-05T00:21:12.145Z,951.98
2019-04-05T00:22:12.119Z,951.96
2019-04-05T00:23:12.115Z,952.00
2019-04-05T00:24:12.120Z,951.98
2019-04-05T00:25:12.099Z,952.05
2019-04-05T00:26:12.079Z,951.97
2019-04-05T00:27:12.075Z,952.02
2019-04-05T00:28:12.050Z,952.03
2019-04-05T00:29:12.054Z,952.04
2019-04-05T00:30:12.040Z,952.02
2019-04-05T00:31:12.033Z,952.05
2019-04-05T00:32:12.011Z,952.00
2019-04-05T00:33:12.002Z,951.96
2019-04-05T00:34:11.989Z,951.98
2019-04-05T00:35:11.986Z,951.97
2019-04-05T00:36:12.071Z,951.98
2019-04-05T00:37:11.971Z,952.04
2019-04-05T00:38:11.939Z,952.03
2019-04-05T00:39:11.939Z,952.06
2019-04-05T00:40:11.923Z,952.01
2019-04-05T00:41:11.921Z,952.05
2019-04-05T00:42:11.917Z,952.04
2019-04-05T00:43:11.886Z,952.06
2019-04-05T00:44:11.874Z,952.09
2019-04-05T00:45:11.865Z,952.06
2019-04-05T00:46:11.861Z,952.07
2019-04-05T00:47:11.858Z,952.06
2019-04-05T00:48:11.851Z,952.07
2019-04-05T00:49:11.819Z,952.07
2019-04-05T00:50:11.806Z,952.02
2019-04-05T00:51:11.794Z,952.03
2019-04-05T00:52:11.822Z,952.00
2019-04-05T00:53:11.793Z,952.04
2019-04-05T00:54:11.784Z,952.02
2019-04-05T00:55:11.790Z,952.05
2019-04-05T00:56:11.740Z,952.09
2019-04-05T00:57:11.730Z,952.06
2019-04-05T00:58:11.742Z,952.09
2019-04-05T00:59:11.731Z,952.12
2019-04-05T01:00:11.735Z,952.13
2019-04-05T01:01:11.683Z,952.15
2019-04-05T01:02:11.689Z,952.15
2019-04-05T01:03:13.145Z,952.13
2019-04-05T01:04:11.662Z,952.17
2019-04-05T01:05:11.655Z,952.14
2019-04-05T01:06:11.658Z,952.14
2019-04-05T01:07:11.619Z,952.09
2019-04-05T01:08:11.635Z,952.07
2019-04-05T01:09:11.601Z,952.07
2019-04-05T01:10:11.596Z,952.08
2019-04-05T01:11:11.591Z,952.06
2019-04-05T01:12:11.600Z,952.13
2019-04-05T01:13:11.563Z,952.11
2019-04-05T01:14:11.563Z,952.08
2019-04-05T01:15:11.533Z,952.08
2019-04-05T01:16:11.548Z,952.12
2019-04-05T01:17:24.147Z,952.10
2019-04-05T01:18:11.538Z,952.07
2019-04-05T01:19:11.497Z,952.10
2019-04-05T01:20:11.478Z,952.03
2019-04-05T01:21:11.466Z,952.07
2019-04-05T01:22:11.478Z,952.02
2019-04-05T01:23:11.457Z,951.97
2019-04-05T01:24:11.465Z,951.96
2019-04-05T01:25:11.432Z,951.98
2019-04-05T01:26:11.407Z,951.95
2019-04-05T01:27:11.407Z,952.01
2019-04-05T01:28:11.395Z,951.98
2019-04-05T01:29:11.403Z,952.06
2019-04-05T01:30:11.368Z,952.06
2019-04-05T01:31:11.374Z,952.10
2019-04-05T01:32:11.344Z,952.11
2019-04-05T01:33:11.347Z,952.11
2019-04-05T01:34:11.334Z,952.07
2019-04-05T01:35:11.331Z,952.11
2019-04-05T01:36:11.334Z,952.11
2019-04-05T01:37:11.293Z,952.05
2019-04-05T01:38:11.277Z,952.08
2019-04-05T01:39:11.284Z,952.09
2019-04-05T01:40:11.290Z,952.07
2019-04-05T01:41:11.264Z,952.09
2019-04-05T01:42:11.241Z,952.07
2019-04-05T01:43:11.234Z,952.11
2019-04-05T01:44:11.209Z,952.15
2019-04-05T01:45:11.227Z,952.13
2019-04-05T01:46:11.211Z,952.15
2019-04-05T01:47:11.202Z,952.20
2019-04-05T01:48:11.174Z,952.15
2019-04-05T01:49:11.158Z,952.18
2019-04-05T01:50:11.182Z,952.20
2019-04-05T01:51:11.176Z,952.20
2019-04-05T01:52:11.142Z,952.22
2019-04-05T01:53:11.112Z,952.17
2019-04-05T01:54:11.098Z,952.14
2019-04-05T01:55:11.088Z,952.18
2019-04-05T01:56:11.095Z,952.15
2019-04-05T01:57:11.075Z,952.18
2019-04-05T01:58:11.083Z,952.18
2019-04-05T01:59:11.051Z,952.21
2019-04-05T02:00:11.038Z,952.18
2019-04-05T02:01:11.027Z,952.15
2019-04-05T02:02:11.017Z,952.15
2019-04-05T02:03:11.014Z,952.15
2019-04-05T02:04:11.022Z,952.19
2019-04-05T02:05:10.975Z,952.19
2019-04-05T02:06:10.988Z,952.21
2019-04-05T02:07:10.953Z,952.16
2019-04-05T02:08:10.987Z,952.18
2019-04-05T02:09:10.946Z,952.16
2019-04-05T02:10:10.941Z,952.17
2019-04-05T02:11:10.959Z,952.07
2019-04-05T02:12:10.914Z,952.09
2019-04-05T02:13:10.892Z,952.13
2019-04-05T02:14:10.904Z,952.15
2019-04-05T02:15:10.889Z,952.16
2019-04-05T02:16:10.853Z,952.09
2019-04-05T02:17:10.849Z,952.09
2019-04-05T02:18:10.838Z,952.06
2019-04-05T02:19:10.827Z,952.09
2019-04-05T02:20:10.840Z,952.11
2019-04-05T02:21:10.816Z,952.11
2019-04-05T02:22:10.817Z,952.11
2019-04-05T02:23:10.794Z,952.16
2019-04-05T02:24:10.790Z,952.22
2019-04-05T02:25:10.754Z,952.25
2019-04-05T02:26:10.783Z,952.29
2019-04-05T02:27:10.754Z,952.28
2019-04-05T02:28:10.806Z,952.32
2019-04-05T02:29:10.728Z,952.32
2019-04-05T02:30:10.713Z,952.29
2019-04-05T02:31:10.701Z,952.30
2019-04-05T02:32:10.699Z,952.35
2019-04-05T02:33:10.685Z,952.31
2019-04-05T02:34:10.656Z,952.33
2019-04-05T02:35:10.663Z,952.30
2019-04-05T02:36:10.643Z,952.36
2019-04-05T02:37:10.633Z,952.35
2019-04-05T02:38:10.657Z,952.34
2019-04-05T02:39:10.617Z,952.32
2019-04-05T02:40:10.616Z,952.29
2019-04-05T02:41:10.587Z,952.31
2019-04-05T02:42:10.579Z,952.36
2019-04-05T02:43:10.570Z,952.34
2019-04-05T02:44:10.617Z,952.37
2019-04-05T02:45:10.566Z,952.37
2019-04-05T02:46:22.684Z,952.32
2019-04-05T02:47:10.540Z,952.29
2019-04-05T02:48:10.507Z,952.26
2019-04-05T02:49:10.529Z,952.25
2019-04-05T02:50:10.526Z,952.28
2019-04-05T02:51:10.496Z,952.19
2019-04-05T02:52:10.455Z,952.18
2019-04-05T02:53:10.468Z,952.26
2019-04-05T02:54:10.472Z,952.27
2019-04-05T02:55:10.441Z,952.26
2019-04-05T02:56:10.443Z,952.28
2019-04-05T02:57:10.427Z,952.30
2019-04-05T02:58:10.388Z,952.32
2019-04-05T02:59:10.386Z,952.29
2019-04-05T03:00:10.700Z,952.26
2019-04-05T03:01:10.365Z,952.31
2019-04-05T03:02:10.382Z,952.30
2019-04-05T03:03:10.334Z,952.34
2019-04-05T03:04:10.453Z,952.34
2019-04-05T03:05:10.330Z,952.35
2019-04-05T03:06:10.304Z,952.34
2019-04-05T03:07:10.300Z,952.33
2019-04-05T03:08:10.318Z,952.37
2019-04-05T03:09:10.354Z,952.32
2019-04-05T03:10:10.287Z,952.38
2019-04-05T03:11:10.256Z,952.31
2019-04-05T03:12:10.240Z,952.37
2019-04-05T03:13:10.232Z,952.36
2019-04-05T03:14:10.239Z,952.40
2019-04-05T03:15:10.241Z,952.41
2019-04-05T03:16:10.201Z,952.40
2019-04-05T03:17:10.182Z,952.38
2019-04-05T03:18:10.180Z,952.35
2019-04-05T03:19:10.177Z,952.39
2019-04-05T03:20:10.169Z,952.32
2019-04-05T03:21:10.175Z,952.32
2019-04-05T03:22:10.136Z,952.32
2019-04-05T03:23:10.118Z,952.35
2019-04-05T03:24:10.122Z,952.38
2019-04-05T03:25:10.101Z,952.34
2019-04-05T03:26:10.115Z,952.38
2019-04-05T03:27:10.091Z,952.41
2019-04-05T03:28:10.074Z,952.43
2019-04-05T03:29:10.049Z,952.39
2019-04-05T03:30:10.055Z,952.34
2019-04-05T03:31:10.075Z,952.35
2019-04-05T03:32:10.034Z,952.32
2019-04-05T03:33:10.041Z,952.34
2019-04-05T03:34:10.030Z,952.39
2019-04-05T03:35:09.983Z,952.37
2019-04-05T03:36:10.021Z,952.42
2019-04-05T03:37:09.981Z,952.38
2019-04-05T03:38:09.947Z,952.37
2019-04-05T03:39:09.943Z,952.33
2019-04-05T03:40:09.940Z,952.29
2019-04-05T03:41:09.917Z,952.31
2019-04-05T03:42:09.953Z,952.33
2019-04-05T03:43:09.903Z,952.29
2019-04-05T03:44:09.882Z,952.39
2019-04-05T03:45:09.869Z,952.36
2019-04-05T03:46:09.865Z,952.40
2019-04-05T03:47:09.877Z,952.38
2019-04-05T03:48:09.847Z,952.39
2019-04-05T03:49:09.844Z,952.35
2019-04-05T03:50:09.820Z,952.36
2019-04-05T03:51:09.799Z,952.34
2019-04-05T03:52:09.811Z,952.34
2019-04-05T03:53:09.796Z,952.40
2019-04-05T03:54:09.786Z,952.40
2019-04-05T03:55:09.777Z,952.41
2019-04-05T03:56:09.755Z,952.38
2019-04-05T03:57:09.750Z,952.38
2019-04-05T03:58:09.736Z,952.39
2019-04-05T03:59:09.733Z,952.35
2019-04-05T04:00:09.727Z,952.39
2019-04-05T04:01:09.689Z,952.35
2019-04-05T04:02:09.679Z,952.36
2019-04-05T04:03:09.685Z,952.37
2019-04-05T04:04:09.660Z,952.41
2019-04-05T04:05:09.676Z,952.46
2019-04-05T04:06:09.653Z,952.50
2019-04-05T04:07:09.625Z,952.56
2019-04-05T04:08:09.635Z,952.61
2019-04-05T04:09:09.610Z,952.67
2019-04-05T04:10:09.593Z,952.62
2019-04-05T04:11:09.602Z,952.59
2019-04-05T04:12:09.589Z,952.60
2019-04-05T04:13:09.579Z,952.56
2019-04-05T04:14:09.553Z,952.56
2019-04-05T04:15:13.328Z,952.51
2019-04-05T04:16:09.528Z,952.50
2019-04-05T04:17:12.747Z,952.54
2019-04-05T04:18:09.518Z,952.52
2019-04-05T04:19:09.496Z,952.51
2019-04-05T04:20:09.480Z,952.51
2019-04-05T04:21:09.466Z,952.54
2019-04-05T04:22:09.468Z,952.54
2019-04-05T04:23:09.463Z,952.53
2019-04-05T04:24:09.491Z,952.58
2019-04-05T04:25:09.420Z,952.53
2019-04-05T04:26:09.412Z,952.56
2019-04-05T04:27:09.400Z,952.62
2019-04-05T04:28:09.396Z,952.56
2019-04-05T04:29:09.413Z,952.64
2019-04-05T04:30:09.396Z,952.62
2019-04-05T04:31:09.401Z,952.67
2019-04-05T04:32:09.344Z,952.70
2019-04-05T04:33:09.330Z,952.62
2019-04-05T04:34:09.341Z,952.68
2019-04-05T04:35:09.329Z,952.63
2019-04-05T04:36:12.867Z,952.65
2019-04-05T04:37:09.294Z,952.65
2019-04-05T04:38:09.279Z,952.62
2019-04-05T04:39:09.267Z,952.64
2019-04-05T04:40:09.301Z,952.62
2019-04-05T04:41:09.260Z,952.64
2019-04-05T04:42:09.257Z,952.62
2019-04-05T04:43:09.232Z,952.56
2019-04-05T04:44:09.214Z,952.55
2019-04-05T04:45:12.354Z,952.51
2019-04-05T04:46:09.206Z,952.53
2019-04-05T04:47:09.188Z,952.60
2019-04-05T04:48:09.166Z,952.63
2019-04-05T04:49:09.158Z,952.58
2019-04-05T04:50:09.144Z,952.62
2019-04-05T04:51:09.165Z,952.57
2019-04-05T04:52:09.130Z,952.63
2019-04-05T04:53:09.138Z,952.54
2019-04-05T04:54:09.103Z,952.51
2019-04-05T04:55:09.090Z,952.56
2019-04-05T04:56:09.096Z,952.57
2019-04-05T04:57:09.071Z,952.56
2019-04-05T04:58:09.067Z,952.66
2019-04-05T04:59:09.074Z,952.67
2019-04-05T05:00:09.083Z,952.68
2019-04-05T05:01:09.028Z,952.64
2019-04-05T05:02:09.022Z,952.66
2019-04-05T05:03:09.011Z,952.67
2019-04-05T05:04:08.998Z,952.66
2019-04-05T05:05:09.003Z,952.67
2019-04-05T05:06:08.966Z,952.61
2019-04-05T05:07:08.967Z,952.64
2019-04-05T05:08:08.945Z,952.66
2019-04-05T05:09:08.944Z,952.65
2019-04-05T05:10:08.944Z,952.65
2019-04-05T05:11:14.451Z,952.71
2019-04-05T05:12:08.943Z,952.73
2019-04-05T05:13:08.900Z,952.66
2019-04-05T05:14:08.884Z,952.65
2019-04-05T05:15:08.894Z,952.75
2019-04-05T05:16:08.866Z,952.75
2019-04-05T05:17:08.866Z,952.72
2019-04-05T05:18:08.845Z,952.69
2019-04-05T05:19:08.821Z,952.74
2019-04-05T05:20:08.815Z,952.68
2019-04-05T05:21:08.808Z,952.71
2019-04-05T05:22:08.818Z,952.77
2019-04-05T05:23:08.828Z,952.76
2019-04-05T05:24:08.766Z,952.74
2019-04-05T05:25:08.776Z,952.73
2019-04-05T05:26:08.749Z,952.82
2019-04-05T05:27:08.746Z,952.81
2019-04-05T05:28:08.745Z,952.75
2019-04-05T05:29:08.716Z,952.77
2019-04-05T05:30:08.706Z,952.78
2019-04-05T05:31:08.696Z,952.75
2019-04-05T05:32:09.745Z,952.77
2019-04-05T05:33:08.687Z,952.73
2019-04-05T05:34:08.671Z,952.72
2019-04-05T05:35:08.684Z,952.71
2019-04-05T05:36:10.490Z,952.69
2019-04-05T05:37:08.624Z,952.71
2019-04-05T05:38:08.622Z,952.72
2019-04-05T05:39:08.617Z,952.70
2019-04-05T05:40:08.615Z,952.75
2019-04-05T05:41:08.584Z,952.73
2019-04-05T05:42:08.577Z,952.71
2019-04-05T05:43:08.555Z,952.71
2019-04-05T05:44:08.620Z,952.68
2019-04-05T05:45:08.556Z,952.71
2019-04-05T05:46:08.549Z,952.72
2019-04-05T05:47:08.516Z,952.73
2019-04-05T05:48:08.532Z,952.80
2019-04-05T05:49:08.487Z,952.76
2019-04-05T05:50:08.488Z,952.78
2019-04-05T05:51:08.508Z,952.79
2019-04-05T05:52:08.461Z,952.85
2019-04-05T05:53:08.448Z,952.88
2019-04-05T05:54:08.436Z,952.90
2019-04-05T05:55:08.435Z,952.87
2019-04-05T05:56:08.425Z,952.98
2019-04-05T05:57:08.428Z,952.96
2019-04-05T05:58:08.390Z,952.94
2019-04-05T05:59:08.382Z,952.92
2019-04-05T06:00:08.365Z,952.95
2019-04-05T06:01:08.385Z,952.88
2019-04-05T06:02:08.369Z,952.94
2019-04-05T06:03:10.814Z,952.93
2019-04-05T06:04:08.323Z,952.94
2019-04-05T06:05:08.312Z,952.90
2019-04-05T06:06:08.297Z,952.93
2019-04-05T06:07:08.338Z,952.86
2019-04-05T06:08:08.311Z,952.83
2019-04-05T06:09:08.297Z,952.83
2019-04-05T06:10:08.258Z,952.84
2019-04-05T06:11:08.241Z,952.85
2019-04-05T06:12:08.239Z,952.83
2019-04-05T06:13:08.308Z,952.85
2019-04-05T06:14:08.229Z,952.81
2019-04-05T06:15:08.218Z,952.81
2019-04-05T06:16:08.190Z,952.82
2019-04-05T06:17:08.178Z,952.81
2019-04-05T06:18:12.171Z,952.81
2019-04-05T06:19:08.185Z,952.81
2019-04-05T06:20:08.155Z,952.80
2019-04-05T06:21:08.151Z,952.78
2019-04-05T06:22:08.121Z,952.73
2019-04-05T06:23:08.126Z,952.75
2019-04-05T06:24:08.095Z,952.74
2019-04-05T06:25:08.115Z,952.74
2019-04-05T06:26:08.101Z,952.80
2019-04-05T06:27:08.064Z,952.87
2019-04-05T06:28:08.078Z,952.78
2019-04-05T06:29:08.082Z,952.75
2019-04-05T06:30:08.055Z,952.77
2019-04-05T06:31:08.042Z,952.75
2019-04-05T06:32:08.043Z,952.75
2019-04-05T06:33:08.046Z,952.78
2019-04-05T06:34:08.044Z,952.73
2019-04-05T06:35:08.013Z,952.71
2019-04-05T06:36:07.989Z,952.71
2019-04-05T06:37:07.980Z,952.64
2019-04-05T06:38:07.973Z,952.63
2019-04-05T06:39:07.989Z,952.67
2019-04-05T06:40:07.921Z,952.70
2019-04-05T06:41:07.929Z,952.63
2019-04-05T06:42:07.910Z,952.66
2019-04-05T06:43:07.906Z,952.69
2019-04-05T06:44:07.907Z,952.66
2019-04-05T06:45:07.875Z,952.72
2019-04-05T06:46:07.960Z,952.74
2019-04-05T06:47:07.847Z,952.75
2019-04-05T06:48:18.526Z,952.78
2019-04-05T06:49:07.836Z,952.75
2019-04-05T06:50:07.813Z,952.74
2019-04-05T06:51:07.801Z,952.67
2019-04-05T06:52:07.802Z,952.66
2019-04-05T06:53:07.783Z,952.73
2019-04-05T06:54:07.784Z,952.70
2019-04-05T06:55:07.778Z,952.67
2019-04-05T06:56:07.750Z,952.67
2019-04-05T06:57:07.741Z,952.66
2019-04-05T06:58:10.332Z,952.61
2019-04-05T06:59:07.728Z,952.65
2019-04-05T07:00:07.715Z,952.67
2019-04-05T07:01:08.229Z,952.65
2019-04-05T07:02:07.729Z,952.64
2019-04-05T07:03:07.669Z,952.67
2019-04-05T07:04:07.653Z,952.69
2019-04-05T07:05:07.668Z,952.72
2019-04-05T07:06:07.657Z,952.74
2019-04-05T07:07:07.659Z,952.68
2019-04-05T07:08:07.620Z,952.72
2019-04-05T07:09:07.600Z,952.64
2019-04-05T07:10:07.619Z,952.67
2019-04-05T07:11:07.604Z,952.70
2019-04-05T07:12:07.581Z,952.66
2019-04-05T07:13:07.683Z,952.74
2019-04-05T07:14:07.548Z,952.77
2019-04-05T07:15:07.537Z,952.72
2019-04-05T07:16:07.562Z,952.74
2019-04-05T07:17:07.519Z,952.76
2019-04-05T07:18:07.533Z,952.75
2019-04-05T07:19:07.517Z,952.80
2019-04-05T07:20:07.497Z,952.82
2019-04-05T07:21:07.466Z,952.78
2019-04-05T07:22:07.488Z,952.80
2019-04-05T07:23:07.453Z,952.74
2019-04-05T07:24:07.452Z,952.80
2019-04-05T07:25:07.432Z,952.73
2019-04-05T07:26:07.414Z,952.72
2019-04-05T07:27:07.408Z,952.79
2019-04-05T07:28:07.404Z,952.75
2019-04-05T07:29:07.395Z,952.77
2019-04-05T07:30:07.395Z,952.78
2019-04-05T07:31:07.361Z,952.81
2019-04-05T07:32:07.349Z,952.78
2019-04-05T07:33:07.344Z,952.88
2019-04-05T07:34:07.341Z,952.82
2019-04-05T07:35:07.333Z,952.81
2019-04-05T07:36:07.300Z,952.78
2019-04-05T07:37:07.335Z,952.84
2019-04-05T07:38:09.631Z,952.84
2019-04-05T07:39:07.268Z,952.91
2019-04-05T07:40:07.280Z,952.89
2019-04-05T07:41:07.258Z,952.87
2019-04-05T07:42:07.262Z,952.87
2019-04-05T07:43:07.233Z,952.89
2019-04-05T07:44:07.741Z,952.91
2019-04-05T07:45:07.204Z,952.96
2019-04-05T07:46:07.219Z,953.01
2019-04-05T07:47:07.196Z,953.00
2019-04-05T07:48:07.205Z,952.98
2019-04-05T07:49:07.161Z,953.03
2019-04-05T07:50:07.160Z,953.04
2019-04-05T07:51:07.146Z,953.08
2019-04-05T07:52:07.141Z,953.15
2019-04-05T07:53:07.140Z,953.12
2019-04-05T07:54:07.102Z,953.11
2019-04-05T07:55:07.106Z,953.16
2019-04-05T07:56:07.093Z,953.10
2019-04-05T07:57:07.077Z,953.13
2019-04-05T07:58:07.072Z,953.07
2019-04-05T07:59:07.119Z,953.09
2019-04-05T08:00:07.034Z,953.15
2019-04-05T08:01:07.028Z,953.11
2019-04-05T08:02:07.025Z,953.10
2019-04-05T08:03:07.019Z,953.08
2019-04-05T08:04:07.007Z,953.01
2019-04-05T08:05:07.004Z,953.06
2019-04-05T08:06:06.970Z,953.06
2019-04-05T08:07:06.954Z,953.03
2019-04-05T08:08:06.945Z,953.10
2019-04-05T08:09:06.963Z,953.07
2019-04-05T08:10:06.951Z,953.08
2019-04-05T08:11:06.946Z,953.16
2019-04-05T08:12:06.956Z,953.10
2019-04-05T08:13:06.895Z,953.11
2019-04-05T08:14:06.882Z,953.14
2019-04-05T08:15:06.892Z,953.12
2019-04-05T08:16:06.872Z,953.08
2019-04-05T08:17:06.892Z,953.16
2019-04-05T08:18:06.845Z,953.15
2019-04-05T08:19:06.827Z,953.11
2019-04-05T08:20:06.850Z,953.11
2019-04-05T08:21:06.817Z,953.06
2019-04-05T08:22:06.804Z,953.06
2019-04-05T08:23:06.783Z,953.09
2019-04-05T08:24:06.774Z,953.06
2019-04-05T08:25:06.842Z,953.15
2019-04-05T08:26:06.790Z,953.08
2019-04-05T08:27:06.849Z,953.09
2019-04-05T08:28:06.870Z,953.10
2019-04-05T08:29:06.713Z,953.10
2019-04-05T08:30:06.708Z,953.08
2019-04-05T08:31:10.472Z,953.11
2019-04-05T08:32:14.306Z,953.13
2019-04-05T08:33:06.687Z,953.13
2019-04-05T08:34:06.688Z,953.11
2019-04-05T08:35:06.648Z,953.14
2019-04-05T08:36:06.636Z,953.09
2019-04-05T08:37:06.629Z,953.15
2019-04-05T08:38:06.639Z,953.09
2019-04-05T08:39:06.633Z,953.10
2019-04-05T08:40:06.623Z,953.16
2019-04-05T08:41:06.589Z,953.15
2019-04-05T08:42:06.577Z,953.12
2019-04-05T08:43:06.583Z,953.15
2019-04-05T08:44:06.570Z,953.19
2019-04-05T08:45:06.550Z,953.23
2019-04-05T08:46:06.530Z,953.23
2019-04-05T08:47:06.522Z,953.15
2019-04-05T08:48:06.507Z,953.13
2019-04-05T08:49:11.012Z,953.06
2019-04-05T08:50:06.490Z,953.06
2019-04-05T08:51:06.485Z,953.04
2019-04-05T08:52:06.457Z,953.07
2019-04-05T08:53:06.456Z,953.06
2019-04-05T08:54:06.439Z,953.07
2019-04-05T08:55:06.434Z,953.04
2019-04-05T08:56:06.429Z,953.07
2019-04-05T08:57:06.435Z,953.04
2019-04-05T08:58:06.391Z,953.01
2019-04-05T08:59:06.408Z,953.06
2019-04-05T09:00:06.385Z,953.07
2019-04-05T09:01:06.367Z,953.04
2019-04-05T09:02:06.363Z,953.08
2019-04-05T09:03:06.362Z,953.02
2019-04-05T09:04:06.331Z,953.04
2019-04-05T09:05:06.319Z,953.04
2019-04-05T09:06:06.305Z,952.98
2019-04-05T09:07:06.324Z,952.99
2019-04-05T09:08:06.300Z,953.03
2019-04-05T09:09:06.269Z,952.90
2019-04-05T09:10:06.265Z,952.90
2019-04-05T09:11:06.270Z,952.87
2019-04-05T09:12:06.271Z,952.86
2019-04-05T09:13:06.253Z,952.89
2019-04-05T09:14:06.235Z,952.91
2019-04-05T09:15:06.206Z,952.90
2019-04-05T09:16:06.205Z,952.90
2019-04-05T09:17:06.184Z,952.92
2019-04-05T09:18:06.167Z,952.94
2019-04-05T09:19:06.196Z,953.02
2019-04-05T09:20:06.172Z,952.96
2019-04-05T09:21:06.134Z,953.00
2019-04-05T09:22:06.126Z,953.01
2019-04-05T09:23:06.121Z,953.04
2019-04-05T09:24:06.112Z,952.95
2019-04-05T09:25:06.122Z,952.95
2019-04-05T09:26:06.118Z,952.95
2019-04-05T09:27:06.074Z,952.95
2019-04-05T09:28:06.061Z,952.94
2019-04-05T09:29:09.001Z,952.98
2019-04-05T09:30:06.058Z,952.97
2019-04-05T09:31:06.039Z,952.94
2019-04-05T09:32:06.054Z,952.98
2019-04-05T09:33:06.008Z,952.97
2019-04-05T09:34:05.990Z,952.96
2019-04-05T09:35:06.015Z,953.00
2019-04-05T09:36:05.994Z,953.03
2019-04-05T09:37:05.975Z,952.97
2019-04-05T09:38:05.972Z,952.96
2019-04-05T09:39:05.940Z,952.93
2019-04-05T09:40:05.925Z,952.94
2019-04-05T09:41:05.933Z,952.96
2019-04-05T09:42:05.922Z,953.00
2019-04-05T09:43:05.916Z,953.02
2019-04-05T09:44:05.968Z,953.01
2019-04-05T09:45:05.872Z,953.03
2019-04-05T09:46:05.857Z,953.02
2019-04-05T09:47:05.857Z,953.03
2019-04-05T09:48:05.861Z,953.10
2019-04-05T09:49:05.834Z,953.12
2019-04-05T09:50:05.844Z,953.10
2019-04-05T09:51:07.198Z,953.09
2019-04-05T09:52:05.823Z,953.14
2019-04-05T09:53:05.783Z,953.09
2019-04-05T09:54:05.800Z,953.11
2019-04-05T09:55:05.772Z,953.11
2019-04-05T09:56:05.751Z,953.07
2019-04-05T09:57:05.743Z,953.09
2019-04-05T09:58:05.736Z,953.05
2019-04-05T09:59:05.716Z,953.09
2019-04-05T10:00:05.744Z,953.09
2019-04-05T10:01:05.708Z,953.10
2019-04-05T10:02:05.688Z,953.17
2019-04-05T10:03:05.680Z,953.18
2019-04-05T10:04:05.656Z,953.20
2019-04-05T10:05:05.680Z,953.18
2019-04-05T10:06:05.651Z,953.19
2019-04-05T10:07:05.650Z,953.21
2019-04-05T10:08:05.615Z,953.21
2019-04-05T10:09:05.616Z,953.20
2019-04-05T10:10:05.631Z,953.24
2019-04-05T10:11:05.593Z,953.21
2019-04-05T10:12:05.586Z,953.22
2019-04-05T10:13:05.579Z,953.20
2019-04-05T10:14:05.548Z,953.25
2019-04-05T10:15:05.538Z,953.16
2019-04-05T10:16:05.544Z,953.17
2019-04-05T10:17:05.524Z,953.15
2019-04-05T10:18:05.522Z,953.13
2019-04-05T10:19:06.265Z,953.11
2019-04-05T10:20:05.478Z,953.03
2019-04-05T10:21:05.477Z,953.02
2019-04-05T10:22:05.456Z,953.00
2019-04-05T10:23:05.459Z,952.97
2019-04-05T10:24:05.461Z,952.98
2019-04-05T10:25:05.447Z,952.98
2019-04-05T10:26:05.457Z,952.93
2019-04-05T10:27:05.419Z,952.96
2019-04-05T10:28:05.391Z,952.95
2019-04-05T10:29:05.403Z,952.99
2019-04-05T10:30:05.394Z,952.90
2019-04-05T10:31:05.357Z,952.91
2019-04-05T10:32:05.362Z,952.88
2019-04-05T10:33:05.350Z,952.88
2019-04-05T10:34:05.323Z,952.85
2019-04-05T10:35:05.331Z,952.85
2019-04-05T10:36:05.320Z,952.85
2019-04-05T10:37:05.319Z,952.81
2019-04-05T10:38:05.288Z,952.82
2019-04-05T10:39:05.269Z,952.84
2019-04-05T10:40:05.303Z,952.81
2019-04-05T10:41:05.256Z,952.75
2019-04-05T10:42:05.250Z,952.77
2019-04-05T10:43:05.225Z,952.78
2019-04-05T10:44:05.211Z,952.77
2019-04-05T10:45:05.202Z,952.77
2019-04-05T10:46:05.220Z,952.79
2019-04-05T10:47:05.192Z,952.75
2019-04-05T10:48:05.190Z,952.73
2019-04-05T10:49:05.162Z,952.74
2019-04-05T10:50:05.148Z,952.73
2019-04-05T10:51:05.210Z,952.72
2019-04-05T10:52:05.134Z,952.72
2019-04-05T10:53:05.134Z,952.74
2019-04-05T10:54:05.123Z,952.75
2019-04-05T10:55:05.098Z,952.72
2019-04-05T10:56:05.102Z,952.77
2019-04-05T10:57:05.072Z,952.76
2019-04-05T10:58:05.077Z,952.81
2019-04-05T10:59:05.069Z,952.80
2019-04-05T11:00:05.061Z,952.77
2019-04-05T11:01:05.024Z,952.76
2019-04-05T11:02:05.021Z,952.72
2019-04-05T11:03:05.004Z,952.76
2019-04-05T11:04:05.008Z,952.76
2019-04-05T11:05:04.994Z,952.75
2019-04-05T11:06:04.995Z,952.75
2019-04-05T11:07:04.968Z,952.68
2019-04-05T11:08:04.951Z,952.65
2019-04-05T11:09:04.943Z,952.67
2019-04-05T11:10:04.951Z,952.66
2019-04-05T11:11:04.921Z,952.70
2019-04-05T11:12:04.944Z,952.69
2019-04-05T11:13:04.892Z,952.69
2019-04-05T11:14:13.505Z,952.65
2019-04-05T11:15:04.875Z,952.68
2019-04-05T11:16:04.877Z,952.67
2019-04-05T11:17:05.157Z,952.70
2019-04-05T11:18:04.878Z,952.64
2019-04-05T11:19:04.823Z,952.63
2019-04-05T11:20:20.132Z,952.59
2019-04-05T11:21:05.832Z,952.63
2019-04-05T11:22:04.798Z,952.59
2019-04-05T11:23:04.800Z,952.59
2019-04-05T11:24:04.768Z,952.61
2019-04-05T11:25:04.758Z,952.60
2019-04-05T11:26:04.748Z,952.57
2019-04-05T11:27:06.639Z,952.55
2019-04-05T11:28:04.743Z,952.55
2019-04-05T11:29:04.736Z,952.54
2019-04-05T11:30:04.703Z,952.50
2019-04-05T11:31:04.693Z,952.50
2019-04-05T11:32:04.699Z,952.50
2019-04-05T11:33:04.683Z,952.50
2019-04-05T11:34:04.674Z,952.52
2019-04-05T11:35:04.677Z,952.51
2019-04-05T11:36:04.642Z,952.52
2019-04-05T11:37:04.639Z,952.53
2019-04-05T11:38:04.613Z,952.53
2019-04-05T11:39:05.393Z,952.51
2019-04-05T11:40:04.610Z,952.57
2019-04-05T11:41:04.605Z,952.58
2019-04-05T11:42:04.574Z,952.56
2019-04-05T11:43:04.562Z,952.56
2019-04-05T11:44:04.545Z,952.55
2019-04-05T11:45:04.575Z,952.53
2019-04-05T11:46:04.544Z,952.55
2019-04-05T11:47:04.537Z,952.53
2019-04-05T11:48:04.518Z,952.55
2019-04-05T11:49:04.566Z,952.52
2019-04-05T11:50:04.481Z,952.51
2019-04-05T11:51:04.506Z,952.52
2019-04-05T11:52:04.495Z,952.52
2019-04-05T11:53:04.445Z,952.47
2019-04-05T11:54:04.489Z,952.50
2019-04-05T11:55:04.707Z,952.46
2019-04-05T11:56:14.386Z,952.42
2019-04-05T11:57:04.421Z,952.51
2019-04-05T11:58:04.410Z,952.49
2019-04-05T11:59:04.378Z,952.47
2019-04-05T12:00:04.377Z,952.47
2019-04-05T12:01:04.362Z,952.49
2019-04-05T12:02:04.354Z,952.45
2019-04-05T12:03:04.371Z,952.39
2019-04-05T12:04:04.339Z,952.43
2019-04-05T12:05:04.322Z,952.46
2019-04-05T12:06:04.330Z,952.44
2019-04-05T12:07:04.292Z,952.45
2019-04-05T12:08:04.306Z,952.42
2019-04-05T12:09:04.288Z,952.42
2019-04-05T12:10:04.254Z,952.43
2019-04-05T12:11:04.324Z,952.44
2019-04-05T12:12:04.234Z,952.44
2019-04-05T12:13:04.311Z,952.36
2019-04-05T12:14:04.247Z,952.31
2019-04-05T12:15:06.196Z,952.36
2019-04-05T12:16:05.989Z,952.34
2019-04-05T12:17:05.665Z,952.33
2019-04-05T12:18:04.625Z,952.34
2019-04-05T12:19:04.763Z,952.35
2019-04-05T12:20:04.158Z,952.32
2019-04-05T12:21:05.723Z,952.30
2019-04-05T12:22:05.374Z,952.29
2019-04-05T12:23:04.114Z,952.26
2019-04-05T12:24:04.121Z,952.23
2019-04-05T12:25:04.093Z,952.27
2019-04-05T12:26:04.861Z,952.22
2019-04-05T12:27:04.808Z,952.17
2019-04-05T12:28:06.999Z,952.18